New Orleans, Louisiana
Traffic Map
Current Weather Conditions
New Orleans, Louisiana
Overcast
Overcast
26°
Feels Like: 27°
Wind Chill: 26° Ceiling: 3900
Heat Index: 27° Visibility: 10mi
Dew Point: 18° Wind: 5mph
Humidity: 62% Direction: 240° (WSW)
Pressure: 30.12in Gusts: 0mph
Raw Report DataKNEW 311753Z 24004KT 10SM BKN039 OVC050 26/18 A3012 RMK AO2 SLP192 T02560178 10261 20183 58011
Traffic Incident Summary
Active as of:
Severity:
Category:
InformationThere was an issue retrieving the traffic information for this location. Please try a different location or try again shortly.
Advertisements
Track Severe Weather on mobile